sensor_id;sensor_type;location;lat;lon;timestamp;P1;durP1;ratioP1;P2;durP2;ratioP2
27383;SDS011;14851;51.166;4.760;2023-02-22T00:00:29;133.95;;;42.03;;
27383;SDS011;14851;51.166;4.760;2023-02-22T00:03:29;113.43;;;39.78;;
27383;SDS011;14851;51.166;4.760;2023-02-22T00:05:57;110.30;;;38.55;;
27383;SDS011;14851;51.166;4.760;2023-02-22T00:08:27;107.88;;;39.58;;
27383;SDS011;14851;51.166;4.760;2023-02-22T00:10:58;140.80;;;40.15;;
27383;SDS011;14851;51.166;4.760;2023-02-22T00:13:25;86.45;;;39.45;;
27383;SDS011;14851;51.166;4.760;2023-02-22T00:15:56;115.90;;;39.20;;
27383;SDS011;14851;51.166;4.760;2023-02-22T00:18:24;86.60;;;39.17;;
27383;SDS011;14851;51.166;4.760;2023-02-22T00:20:56;108.72;;;38.17;;
27383;SDS011;14851;51.166;4.760;2023-02-22T00:23:27;106.88;;;37.78;;
27383;SDS011;14851;51.166;4.760;2023-02-22T00:25:54;118.60;;;36.65;;
27383;SDS011;14851;51.166;4.760;2023-02-22T00:28:21;93.65;;;36.88;;
27383;SDS011;14851;51.166;4.760;2023-02-22T00:30:50;90.63;;;36.03;;
27383;SDS011;14851;51.166;4.760;2023-02-22T00:33:19;117.72;;;38.15;;
27383;SDS011;14851;51.166;4.760;2023-02-22T00:35:45;100.57;;;34.42;;
27383;SDS011;14851;51.166;4.760;2023-02-22T00:38:15;113.18;;;37.13;;
27383;SDS011;14851;51.166;4.760;2023-02-22T00:40:45;91.78;;;38.53;;
27383;SDS011;14851;51.166;4.760;2023-02-22T00:43:11;98.13;;;36.60;;
27383;SDS011;14851;51.166;4.760;2023-02-22T00:45:37;109.97;;;37.88;;
27383;SDS011;14851;51.166;4.760;2023-02-22T00:48:03;102.40;;;37.58;;
27383;SDS011;14851;51.166;4.760;2023-02-22T00:50:30;90.85;;;37.40;;
27383;SDS011;14851;51.166;4.760;2023-02-22T00:52:57;97.47;;;37.20;;
27383;SDS011;14851;51.166;4.760;2023-02-22T00:55:26;92.85;;;37.35;;
27383;SDS011;14851;51.166;4.760;2023-02-22T00:57:56;110.50;;;35.85;;
27383;SDS011;14851;51.166;4.760;2023-02-22T01:00:37;112.03;;;36.58;;
27383;SDS011;14851;51.166;4.760;2023-02-22T01:03:06;121.05;;;37.58;;
27383;SDS011;14851;51.166;4.760;2023-02-22T01:05:35;135.77;;;34.78;;
27383;SDS011;14851;51.166;4.760;2023-02-22T01:08:03;93.25;;;37.38;;
27383;SDS011;14851;51.166;4.760;2023-02-22T01:10:32;147.93;;;36.85;;
27383;SDS011;14851;51.166;4.760;2023-02-22T01:12:59;141.30;;;37.67;;
27383;SDS011;14851;51.166;4.760;2023-02-22T01:15:26;128.23;;;37.92;;
27383;SDS011;14851;51.166;4.760;2023-02-22T01:17:55;141.70;;;37.58;;
27383;SDS011;14851;51.166;4.760;2023-02-22T01:20:23;103.03;;;37.75;;
27383;SDS011;14851;51.166;4.760;2023-02-22T01:22:50;138.38;;;37.90;;
27383;SDS011;14851;51.166;4.760;2023-02-22T01:25:23;101.70;;;38.92;;
27383;SDS011;14851;51.166;4.760;2023-02-22T01:27:53;110.63;;;36.95;;
27383;SDS011;14851;51.166;4.760;2023-02-22T01:30:21;147.95;;;37.00;;
27383;SDS011;14851;51.166;4.760;2023-02-22T01:32:51;138.25;;;37.45;;
27383;SDS011;14851;51.166;4.760;2023-02-22T01:35:20;110.07;;;39.40;;
27383;SDS011;14851;51.166;4.760;2023-02-22T01:37:49;135.02;;;38.60;;
27383;SDS011;14851;51.166;4.760;2023-02-22T01:40:21;142.55;;;37.40;;
27383;SDS011;14851;51.166;4.760;2023-02-22T01:42:51;131.90;;;37.03;;
27383;SDS011;14851;51.166;4.760;2023-02-22T01:50:28;100.72;;;39.35;;
27383;SDS011;14851;51.166;4.760;2023-02-22T01:52:56;114.60;;;34.95;;
27383;SDS011;14851;51.166;4.760;2023-02-22T01:55:22;120.68;;;35.30;;
27383;SDS011;14851;51.166;4.760;2023-02-22T01:57:49;124.82;;;36.83;;
27383;SDS011;14851;51.166;4.760;2023-02-22T02:00:17;112.05;;;34.70;;
27383;SDS011;14851;51.166;4.760;2023-02-22T02:02:51;107.85;;;33.80;;
27383;SDS011;14851;51.166;4.760;2023-02-22T02:05:24;115.60;;;33.65;;
27383;SDS011;14851;51.166;4.760;2023-02-22T02:07:51;108.55;;;30.40;;
27383;SDS011;14851;51.166;4.760;2023-02-22T02:10:19;114.95;;;31.42;;
27383;SDS011;14851;51.166;4.760;2023-02-22T02:12:46;86.05;;;31.75;;
27383;SDS011;14851;51.166;4.760;2023-02-22T02:15:30;90.50;;;32.63;;
27383;SDS011;14851;51.166;4.760;2023-02-22T02:18:00;84.20;;;31.40;;
27383;SDS011;14851;51.166;4.760;2023-02-22T02:36:48;112.38;;;31.35;;
27383;SDS011;14851;51.166;4.760;2023-02-22T02:41:54;71.80;;;31.95;;
27383;SDS011;14851;51.166;4.760;2023-02-22T02:44:35;112.13;;;30.45;;
27383;SDS011;14851;51.166;4.760;2023-02-22T02:47:09;92.95;;;31.08;;
27383;SDS011;14851;51.166;4.760;2023-02-22T02:49:53;93.85;;;28.38;;
27383;SDS011;14851;51.166;4.760;2023-02-22T02:52:25;84.85;;;30.30;;
27383;SDS011;14851;51.166;4.760;2023-02-22T02:54:52;87.97;;;28.58;;
27383;SDS011;14851;51.166;4.760;2023-02-22T02:57:19;94.20;;;28.40;;
27383;SDS011;14851;51.166;4.760;2023-02-22T02:59:46;93.95;;;29.33;;
27383;SDS011;14851;51.166;4.760;2023-02-22T03:02:22;87.60;;;27.77;;
27383;SDS011;14851;51.166;4.760;2023-02-22T03:15:52;77.80;;;27.13;;
27383;SDS011;14851;51.166;4.760;2023-02-22T03:21:00;94.25;;;26.63;;
27383;SDS011;14851;51.166;4.760;2023-02-22T03:26:15;90.93;;;25.55;;
27383;SDS011;14851;51.166;4.760;2023-02-22T03:28:51;91.93;;;27.65;;
27383;SDS011;14851;51.166;4.760;2023-02-22T03:31:22;65.07;;;26.50;;
27383;SDS011;14851;51.166;4.760;2023-02-22T03:34:21;60.10;;;25.48;;
27383;SDS011;14851;51.166;4.760;2023-02-22T03:36:57;88.65;;;24.77;;
27383;SDS011;14851;51.166;4.760;2023-02-22T03:39:32;74.22;;;25.58;;
27383;SDS011;14851;51.166;4.760;2023-02-22T03:42:03;67.22;;;26.60;;
27383;SDS011;14851;51.166;4.760;2023-02-22T03:44:36;56.45;;;27.55;;
27383;SDS011;14851;51.166;4.760;2023-02-22T03:47:05;59.75;;;26.13;;
27383;SDS011;14851;51.166;4.760;2023-02-22T03:49:36;65.25;;;25.83;;
27383;SDS011;14851;51.166;4.760;2023-02-22T03:52:12;73.38;;;25.30;;
27383;SDS011;14851;51.166;4.760;2023-02-22T03:54:38;61.92;;;23.77;;
27383;SDS011;14851;51.166;4.760;2023-02-22T03:59:37;29.90;;;20.45;;
27383;SDS011;14851;51.166;4.760;2023-02-22T04:02:04;39.08;;;20.38;;
27383;SDS011;14851;51.166;4.760;2023-02-22T04:04:30;44.17;;;19.58;;
27383;SDS011;14851;51.166;4.760;2023-02-22T04:06:56;49.65;;;18.88;;
27383;SDS011;14851;51.166;4.760;2023-02-22T04:09:24;54.33;;;20.63;;
27383;SDS011;14851;51.166;4.760;2023-02-22T04:11:49;52.88;;;20.42;;
27383;SDS011;14851;51.166;4.760;2023-02-22T04:14:15;38.88;;;20.50;;
27383;SDS011;14851;51.166;4.760;2023-02-22T04:16:41;36.53;;;20.63;;
27383;SDS011;14851;51.166;4.760;2023-02-22T04:19:08;36.90;;;20.95;;
27383;SDS011;14851;51.166;4.760;2023-02-22T04:21:36;31.40;;;19.90;;
27383;SDS011;14851;51.166;4.760;2023-02-22T04:24:03;39.60;;;19.60;;
27383;SDS011;14851;51.166;4.760;2023-02-22T04:26:30;31.08;;;19.02;;
27383;SDS011;14851;51.166;4.760;2023-02-22T04:28:59;35.88;;;19.83;;
27383;SDS011;14851;51.166;4.760;2023-02-22T04:31:32;44.78;;;19.70;;
27383;SDS011;14851;51.166;4.760;2023-02-22T04:34:01;30.17;;;19.95;;
27383;SDS011;14851;51.166;4.760;2023-02-22T04:36:31;36.78;;;19.02;;
27383;SDS011;14851;51.166;4.760;2023-02-22T04:38:58;29.17;;;18.27;;
27383;SDS011;14851;51.166;4.760;2023-02-22T04:41:27;62.67;;;18.27;;
27383;SDS011;14851;51.166;4.760;2023-02-22T04:43:53;41.13;;;18.00;;
27383;SDS011;14851;51.166;4.760;2023-02-22T04:46:21;30.60;;;17.85;;
27383;SDS011;14851;51.166;4.760;2023-02-22T04:48:47;35.38;;;19.27;;
27383;SDS011;14851;51.166;4.760;2023-02-22T04:51:19;41.10;;;19.05;;
27383;SDS011;14851;51.166;4.760;2023-02-22T04:53:56;42.58;;;18.58;;
27383;SDS011;14851;51.166;4.760;2023-02-22T04:56:23;38.65;;;19.25;;
27383;SDS011;14851;51.166;4.760;2023-02-22T04:58:51;35.28;;;19.85;;
27383;SDS011;14851;51.166;4.760;2023-02-22T05:01:17;27.77;;;18.50;;
27383;SDS011;14851;51.166;4.760;2023-02-22T05:03:45;69.93;;;19.13;;
27383;SDS011;14851;51.166;4.760;2023-02-22T05:06:11;32.22;;;18.90;;
27383;SDS011;14851;51.166;4.760;2023-02-22T05:08:39;40.15;;;18.95;;
27383;SDS011;14851;51.166;4.760;2023-02-22T05:11:05;31.48;;;18.60;;
27383;SDS011;14851;51.166;4.760;2023-02-22T05:13:31;38.55;;;19.38;;
27383;SDS011;14851;51.166;4.760;2023-02-22T05:15:56;30.27;;;18.25;;
27383;SDS011;14851;51.166;4.760;2023-02-22T05:18:24;41.65;;;18.40;;
27383;SDS011;14851;51.166;4.760;2023-02-22T05:20:50;37.13;;;18.92;;
27383;SDS011;14851;51.166;4.760;2023-02-22T05:23:16;43.20;;;19.02;;
27383;SDS011;14851;51.166;4.760;2023-02-22T05:25:42;30.88;;;18.92;;
27383;SDS011;14851;51.166;4.760;2023-02-22T05:28:10;30.52;;;18.75;;
27383;SDS011;14851;51.166;4.760;2023-02-22T05:30:40;29.15;;;18.58;;
27383;SDS011;14851;51.166;4.760;2023-02-22T05:33:08;25.83;;;19.17;;
27383;SDS011;14851;51.166;4.760;2023-02-22T05:35:34;22.45;;;18.50;;
27383;SDS011;14851;51.166;4.760;2023-02-22T05:38:03;24.35;;;18.98;;
27383;SDS011;14851;51.166;4.760;2023-02-22T05:40:30;22.45;;;17.55;;
27383;SDS011;14851;51.166;4.760;2023-02-22T05:42:56;23.33;;;18.88;;
27383;SDS011;14851;51.166;4.760;2023-02-22T05:45:24;26.67;;;19.95;;
27383;SDS011;14851;51.166;4.760;2023-02-22T05:47:51;26.73;;;19.45;;
27383;SDS011;14851;51.166;4.760;2023-02-22T05:50:18;25.75;;;18.85;;
27383;SDS011;14851;51.166;4.760;2023-02-22T05:52:45;24.30;;;18.77;;
27383;SDS011;14851;51.166;4.760;2023-02-22T05:55:13;29.67;;;20.38;;
27383;SDS011;14851;51.166;4.760;2023-02-22T05:57:44;25.65;;;18.95;;
27383;SDS011;14851;51.166;4.760;2023-02-22T06:00:13;29.00;;;19.70;;
27383;SDS011;14851;51.166;4.760;2023-02-22T06:02:52;24.77;;;16.70;;
27383;SDS011;14851;51.166;4.760;2023-02-22T06:05:21;26.08;;;19.20;;
27383;SDS011;14851;51.166;4.760;2023-02-22T06:07:48;29.10;;;20.15;;
27383;SDS011;14851;51.166;4.760;2023-02-22T06:10:14;22.27;;;16.98;;
27383;SDS011;14851;51.166;4.760;2023-02-22T06:12:40;24.40;;;19.13;;
27383;SDS011;14851;51.166;4.760;2023-02-22T06:15:05;25.55;;;18.67;;
27383;SDS011;14851;51.166;4.760;2023-02-22T06:17:32;22.38;;;18.02;;
27383;SDS011;14851;51.166;4.760;2023-02-22T06:19:57;23.23;;;18.83;;
27383;SDS011;14851;51.166;4.760;2023-02-22T06:22:23;22.95;;;18.92;;
27383;SDS011;14851;51.166;4.760;2023-02-22T06:24:49;23.25;;;18.55;;
27383;SDS011;14851;51.166;4.760;2023-02-22T06:27:15;22.42;;;17.33;;
27383;SDS011;14851;51.166;4.760;2023-02-22T06:29:43;21.20;;;17.20;;
27383;SDS011;14851;51.166;4.760;2023-02-22T06:32:13;21.52;;;17.15;;
27383;SDS011;14851;51.166;4.760;2023-02-22T06:34:42;23.27;;;18.13;;
27383;SDS011;14851;51.166;4.760;2023-02-22T06:37:10;21.75;;;17.60;;
27383;SDS011;14851;51.166;4.760;2023-02-22T06:39:36;21.88;;;17.88;;
27383;SDS011;14851;51.166;4.760;2023-02-22T06:42:02;21.20;;;16.67;;
27383;SDS011;14851;51.166;4.760;2023-02-22T06:44:28;20.00;;;16.30;;
27383;SDS011;14851;51.166;4.760;2023-02-22T06:46:56;21.15;;;15.43;;
27383;SDS011;14851;51.166;4.760;2023-02-22T06:49:24;20.95;;;16.70;;
27383;SDS011;14851;51.166;4.760;2023-02-22T06:51:51;24.23;;;17.92;;
27383;SDS011;14851;51.166;4.760;2023-02-22T06:54:18;138.00;;;21.88;;
27383;SDS011;14851;51.166;4.760;2023-02-22T06:56:44;26.27;;;18.33;;
27383;SDS011;14851;51.166;4.760;2023-02-22T06:59:10;22.10;;;17.35;;
27383;SDS011;14851;51.166;4.760;2023-02-22T07:01:36;22.65;;;17.90;;
27383;SDS011;14851;51.166;4.760;2023-02-22T07:04:04;25.60;;;18.85;;
27383;SDS011;14851;51.166;4.760;2023-02-22T07:06:30;21.48;;;18.00;;
27383;SDS011;14851;51.166;4.760;2023-02-22T07:08:56;23.13;;;18.63;;
27383;SDS011;14851;51.166;4.760;2023-02-22T07:11:21;24.83;;;18.65;;
27383;SDS011;14851;51.166;4.760;2023-02-22T07:13:47;21.65;;;16.40;;
27383;SDS011;14851;51.166;4.760;2023-02-22T07:16:13;20.25;;;17.33;;
27383;SDS011;14851;51.166;4.760;2023-02-22T07:18:39;21.60;;;17.48;;
27383;SDS011;14851;51.166;4.760;2023-02-22T07:21:05;22.40;;;17.80;;
27383;SDS011;14851;51.166;4.760;2023-02-22T07:23:31;22.45;;;18.13;;
27383;SDS011;14851;51.166;4.760;2023-02-22T07:26:01;20.45;;;16.70;;
27383;SDS011;14851;51.166;4.760;2023-02-22T07:28:29;20.17;;;16.88;;
27383;SDS011;14851;51.166;4.760;2023-02-22T07:30:58;21.27;;;16.48;;
27383;SDS011;14851;51.166;4.760;2023-02-22T07:33:25;22.13;;;16.25;;
27383;SDS011;14851;51.166;4.760;2023-02-22T07:35:51;30.75;;;21.25;;
27383;SDS011;14851;51.166;4.760;2023-02-22T07:38:17;41.20;;;25.10;;
27383;SDS011;14851;51.166;4.760;2023-02-22T07:40:45;25.40;;;17.50;;
27383;SDS011;14851;51.166;4.760;2023-02-22T07:43:21;21.80;;;16.17;;
27383;SDS011;14851;51.166;4.760;2023-02-22T07:45:51;22.60;;;16.10;;
27383;SDS011;14851;51.166;4.760;2023-02-22T07:48:20;20.60;;;15.07;;
27383;SDS011;14851;51.166;4.760;2023-02-22T07:50:49;18.58;;;15.50;;
27383;SDS011;14851;51.166;4.760;2023-02-22T07:53:20;22.50;;;16.98;;
27383;SDS011;14851;51.166;4.760;2023-02-22T07:55:49;19.52;;;16.05;;
27383;SDS011;14851;51.166;4.760;2023-02-22T07:58:20;21.77;;;16.63;;
27383;SDS011;14851;51.166;4.760;2023-02-22T08:00:47;21.58;;;17.60;;
27383;SDS011;14851;51.166;4.760;2023-02-22T08:03:14;19.50;;;15.90;;
27383;SDS011;14851;51.166;4.760;2023-02-22T08:05:47;20.27;;;15.57;;
27383;SDS011;14851;51.166;4.760;2023-02-22T08:08:15;20.98;;;17.30;;
27383;SDS011;14851;51.166;4.760;2023-02-22T08:10:42;20.10;;;16.50;;
27383;SDS011;14851;51.166;4.760;2023-02-22T08:13:08;23.30;;;15.80;;
27383;SDS011;14851;51.166;4.760;2023-02-22T08:15:37;20.40;;;16.95;;
27383;SDS011;14851;51.166;4.760;2023-02-22T08:18:06;22.77;;;17.17;;
27383;SDS011;14851;51.166;4.760;2023-02-22T08:20:35;17.90;;;14.23;;
27383;SDS011;14851;51.166;4.760;2023-02-22T08:23:03;18.77;;;15.20;;
27383;SDS011;14851;51.166;4.760;2023-02-22T08:25:31;17.70;;;14.75;;
27383;SDS011;14851;51.166;4.760;2023-02-22T08:28:00;19.27;;;14.63;;
27383;SDS011;14851;51.166;4.760;2023-02-22T08:30:32;21.85;;;16.50;;
27383;SDS011;14851;51.166;4.760;2023-02-22T08:32:59;16.75;;;14.02;;
27383;SDS011;14851;51.166;4.760;2023-02-22T08:35:28;18.23;;;14.85;;
27383;SDS011;14851;51.166;4.760;2023-02-22T08:38:00;18.40;;;14.63;;
27383;SDS011;14851;51.166;4.760;2023-02-22T08:40:28;15.90;;;13.93;;
27383;SDS011;14851;51.166;4.760;2023-02-22T08:45:26;18.17;;;14.65;;
27383;SDS011;14851;51.166;4.760;2023-02-22T08:47:56;17.58;;;14.30;;
27383;SDS011;14851;51.166;4.760;2023-02-22T08:50:24;19.70;;;15.48;;
27383;SDS011;14851;51.166;4.760;2023-02-22T08:52:55;19.92;;;15.13;;
27383;SDS011;14851;51.166;4.760;2023-02-22T08:55:24;18.33;;;13.48;;
27383;SDS011;14851;51.166;4.760;2023-02-22T08:57:52;18.33;;;14.65;;
27383;SDS011;14851;51.166;4.760;2023-02-22T09:00:21;18.25;;;14.63;;
27383;SDS011;14851;51.166;4.760;2023-02-22T09:02:51;18.10;;;15.27;;
27383;SDS011;14851;51.166;4.760;2023-02-22T09:05:19;18.10;;;14.38;;
27383;SDS011;14851;51.166;4.760;2023-02-22T09:07:45;17.70;;;14.40;;
27383;SDS011;14851;51.166;4.760;2023-02-22T09:10:15;17.42;;;14.40;;
27383;SDS011;14851;51.166;4.760;2023-02-22T09:12:46;17.92;;;14.63;;
27383;SDS011;14851;51.166;4.760;2023-02-22T09:15:14;18.52;;;14.55;;
27383;SDS011;14851;51.166;4.760;2023-02-22T09:17:40;18.00;;;14.10;;
27383;SDS011;14851;51.166;4.760;2023-02-22T09:20:06;15.63;;;12.90;;
27383;SDS011;14851;51.166;4.760;2023-02-22T09:22:33;15.48;;;13.35;;
27383;SDS011;14851;51.166;4.760;2023-02-22T09:25:01;13.25;;;11.13;;
27383;SDS011;14851;51.166;4.760;2023-02-22T09:27:29;19.65;;;14.48;;
27383;SDS011;14851;51.166;4.760;2023-02-22T09:29:55;18.38;;;13.48;;
27383;SDS011;14851;51.166;4.760;2023-02-22T09:32:22;17.20;;;13.98;;
27383;SDS011;14851;51.166;4.760;2023-02-22T09:34:52;16.42;;;13.15;;
27383;SDS011;14851;51.166;4.760;2023-02-22T09:37:21;18.02;;;14.93;;
27383;SDS011;14851;51.166;4.760;2023-02-22T09:39:49;17.98;;;13.65;;
27383;SDS011;14851;51.166;4.760;2023-02-22T09:42:27;17.55;;;13.68;;
27383;SDS011;14851;51.166;4.760;2023-02-22T09:47:46;15.50;;;12.55;;
27383;SDS011;14851;51.166;4.760;2023-02-22T09:50:21;15.60;;;13.13;;
27383;SDS011;14851;51.166;4.760;2023-02-22T09:52:53;16.85;;;12.52;;
27383;SDS011;14851;51.166;4.760;2023-02-22T09:55:34;15.63;;;13.52;;
27383;SDS011;14851;51.166;4.760;2023-02-22T10:01:21;18.42;;;12.75;;
27383;SDS011;14851;51.166;4.760;2023-02-22T10:06:29;16.60;;;14.27;;
27383;SDS011;14851;51.166;4.760;2023-02-22T10:08:58;18.15;;;14.60;;
27383;SDS011;14851;51.166;4.760;2023-02-22T10:22:10;19.50;;;13.45;;
27383;SDS011;14851;51.166;4.760;2023-02-22T10:29:58;22.55;;;19.08;;
27383;SDS011;14851;51.166;4.760;2023-02-22T10:32:54;22.35;;;16.67;;
27383;SDS011;14851;51.166;4.760;2023-02-22T10:35:39;22.55;;;16.35;;
27383;SDS011;14851;51.166;4.760;2023-02-22T10:40:42;16.35;;;13.50;;
27383;SDS011;14851;51.166;4.760;2023-02-22T10:43:21;21.58;;;15.73;;
27383;SDS011;14851;51.166;4.760;2023-02-22T10:45:48;20.75;;;15.27;;
27383;SDS011;14851;51.166;4.760;2023-02-22T10:48:20;22.02;;;17.23;;
27383;SDS011;14851;51.166;4.760;2023-02-22T10:50:48;23.00;;;16.83;;
27383;SDS011;14851;51.166;4.760;2023-02-22T10:53:21;26.20;;;18.80;;
27383;SDS011;14851;51.166;4.760;2023-02-22T11:06:29;24.50;;;19.90;;
27383;SDS011;14851;51.166;4.760;2023-02-22T11:09:03;25.88;;;20.20;;
27383;SDS011;14851;51.166;4.760;2023-02-22T11:11:45;28.15;;;19.60;;
27383;SDS011;14851;51.166;4.760;2023-02-22T11:14:23;25.65;;;20.15;;
27383;SDS011;14851;51.166;4.760;2023-02-22T11:16:52;26.92;;;20.63;;
27383;SDS011;14851;51.166;4.760;2023-02-22T11:19:22;26.95;;;20.92;;
27383;SDS011;14851;51.166;4.760;2023-02-22T11:21:54;29.58;;;20.83;;
27383;SDS011;14851;51.166;4.760;2023-02-22T11:24:22;28.95;;;20.30;;
27383;SDS011;14851;51.166;4.760;2023-02-22T11:26:55;25.75;;;20.50;;
27383;SDS011;14851;51.166;4.760;2023-02-22T11:29:31;29.77;;;22.05;;
27383;SDS011;14851;51.166;4.760;2023-02-22T11:32:00;31.38;;;25.25;;
27383;SDS011;14851;51.166;4.760;2023-02-22T11:34:45;26.48;;;21.92;;
27383;SDS011;14851;51.166;4.760;2023-02-22T11:37:16;29.98;;;21.23;;
27383;SDS011;14851;51.166;4.760;2023-02-22T11:43:34;27.50;;;22.02;;
27383;SDS011;14851;51.166;4.760;2023-02-22T11:48:29;29.17;;;20.70;;
27383;SDS011;14851;51.166;4.760;2023-02-22T11:56:25;31.05;;;21.63;;
27383;SDS011;14851;51.166;4.760;2023-02-22T12:01:51;28.40;;;21.35;;
27383;SDS011;14851;51.166;4.760;2023-02-22T12:17:49;27.13;;;22.05;;
27383;SDS011;14851;51.166;4.760;2023-02-22T12:20:44;26.30;;;21.90;;
27383;SDS011;14851;51.166;4.760;2023-02-22T12:23:16;27.50;;;22.65;;
27383;SDS011;14851;51.166;4.760;2023-02-22T12:25:54;30.23;;;24.30;;
27383;SDS011;14851;51.166;4.760;2023-02-22T12:28:27;28.67;;;23.13;;
27383;SDS011;14851;51.166;4.760;2023-02-22T12:31:20;28.00;;;22.55;;
27383;SDS011;14851;51.166;4.760;2023-02-22T12:33:55;28.80;;;23.48;;
27383;SDS011;14851;51.166;4.760;2023-02-22T12:36:30;27.38;;;22.83;;
27383;SDS011;14851;51.166;4.760;2023-02-22T12:42:14;33.92;;;23.95;;
27383;SDS011;14851;51.166;4.760;2023-02-22T12:44:44;32.20;;;24.88;;
27383;SDS011;14851;51.166;4.760;2023-02-22T12:47:20;34.03;;;24.92;;
27383;SDS011;14851;51.166;4.760;2023-02-22T12:55:56;32.20;;;25.60;;
27383;SDS011;14851;51.166;4.760;2023-02-22T12:58:42;30.10;;;25.33;;
27383;SDS011;14851;51.166;4.760;2023-02-22T13:01:13;35.17;;;25.83;;
27383;SDS011;14851;51.166;4.760;2023-02-22T13:03:45;32.58;;;27.40;;
27383;SDS011;14851;51.166;4.760;2023-02-22T13:12:19;32.47;;;26.45;;
27383;SDS011;14851;51.166;4.760;2023-02-22T13:15:14;33.25;;;27.05;;
27383;SDS011;14851;51.166;4.760;2023-02-22T13:28:38;37.00;;;27.52;;
27383;SDS011;14851;51.166;4.760;2023-02-22T13:50:42;35.92;;;30.00;;
27383;SDS011;14851;51.166;4.760;2023-02-22T13:53:25;36.65;;;30.05;;
27383;SDS011;14851;51.166;4.760;2023-02-22T13:56:00;37.22;;;31.42;;
27383;SDS011;14851;51.166;4.760;2023-02-22T13:58:26;39.97;;;31.60;;
27383;SDS011;14851;51.166;4.760;2023-02-22T14:00:55;43.17;;;31.70;;
27383;SDS011;14851;51.166;4.760;2023-02-22T14:03:28;50.78;;;39.60;;
27383;SDS011;14851;51.166;4.760;2023-02-22T14:06:01;39.58;;;35.30;;
27383;SDS011;14851;51.166;4.760;2023-02-22T14:14:24;41.58;;;34.95;;
27383;SDS011;14851;51.166;4.760;2023-02-22T14:16:28;43.92;;;36.50;;
27383;SDS011;14851;51.166;4.760;2023-02-22T14:19:12;42.83;;;36.90;;
27383;SDS011;14851;51.166;4.760;2023-02-22T14:22:00;47.60;;;38.05;;
27383;SDS011;14851;51.166;4.760;2023-02-22T14:24:28;44.15;;;38.35;;
27383;SDS011;14851;51.166;4.760;2023-02-22T14:27:08;48.38;;;40.03;;
27383;SDS011;14851;51.166;4.760;2023-02-22T14:29:35;47.15;;;38.88;;
27383;SDS011;14851;51.166;4.760;2023-02-22T14:37:29;45.13;;;39.05;;
27383;SDS011;14851;51.166;4.760;2023-02-22T14:42:38;47.85;;;38.35;;
27383;SDS011;14851;51.166;4.760;2023-02-22T14:45:17;46.78;;;39.83;;
27383;SDS011;14851;51.166;4.760;2023-02-22T14:55:57;50.63;;;41.22;;
27383;SDS011;14851;51.166;4.760;2023-02-22T15:01:28;48.25;;;39.38;;
27383;SDS011;14851;51.166;4.760;2023-02-22T15:04:21;45.35;;;39.78;;
27383;SDS011;14851;51.166;4.760;2023-02-22T15:06:47;44.97;;;39.40;;
27383;SDS011;14851;51.166;4.760;2023-02-22T15:12:48;48.45;;;40.78;;
27383;SDS011;14851;51.166;4.760;2023-02-22T15:14:58;44.70;;;39.20;;
27383;SDS011;14851;51.166;4.760;2023-02-22T15:17:40;49.55;;;41.20;;
27383;SDS011;14851;51.166;4.760;2023-02-22T15:20:11;50.20;;;42.53;;
27383;SDS011;14851;51.166;4.760;2023-02-22T15:22:45;46.83;;;41.40;;
27383;SDS011;14851;51.166;4.760;2023-02-22T15:25:12;48.92;;;41.85;;
27383;SDS011;14851;51.166;4.760;2023-02-22T15:27:38;51.28;;;43.30;;
27383;SDS011;14851;51.166;4.760;2023-02-22T15:30:16;47.60;;;42.42;;
27383;SDS011;14851;51.166;4.760;2023-02-22T15:32:50;54.42;;;44.50;;
27383;SDS011;14851;51.166;4.760;2023-02-22T15:35:51;50.42;;;42.55;;
27383;SDS011;14851;51.166;4.760;2023-02-22T15:40:35;55.47;;;45.20;;
27383;SDS011;14851;51.166;4.760;2023-02-22T15:43:07;53.03;;;46.13;;
27383;SDS011;14851;51.166;4.760;2023-02-22T15:45:42;56.50;;;46.35;;
27383;SDS011;14851;51.166;4.760;2023-02-22T15:48:08;54.08;;;46.22;;
27383;SDS011;14851;51.166;4.760;2023-02-22T15:50:35;55.10;;;46.60;;
27383;SDS011;14851;51.166;4.760;2023-02-22T15:53:44;54.70;;;46.67;;
27383;SDS011;14851;51.166;4.760;2023-02-22T15:55:57;56.53;;;46.53;;
27383;SDS011;14851;51.166;4.760;2023-02-22T15:58:27;58.30;;;48.78;;
27383;SDS011;14851;51.166;4.760;2023-02-22T16:01:04;61.05;;;47.70;;
27383;SDS011;14851;51.166;4.760;2023-02-22T16:03:53;57.70;;;46.30;;
27383;SDS011;14851;51.166;4.760;2023-02-22T16:09:22;56.78;;;45.78;;
27383;SDS011;14851;51.166;4.760;2023-02-22T16:11:50;59.05;;;46.42;;
27383;SDS011;14851;51.166;4.760;2023-02-22T16:22:42;53.63;;;43.28;;
27383;SDS011;14851;51.166;4.760;2023-02-22T16:32:58;58.63;;;45.53;;
27383;SDS011;14851;51.166;4.760;2023-02-22T16:35:29;57.53;;;44.88;;
27383;SDS011;14851;51.166;4.760;2023-02-22T16:40:33;58.58;;;46.00;;
27383;SDS011;14851;51.166;4.760;2023-02-22T16:43:12;62.00;;;46.10;;
27383;SDS011;14851;51.166;4.760;2023-02-22T16:45:41;60.90;;;46.42;;
27383;SDS011;14851;51.166;4.760;2023-02-22T16:48:23;61.45;;;46.50;;
27383;SDS011;14851;51.166;4.760;2023-02-22T16:50:50;64.60;;;47.72;;
27383;SDS011;14851;51.166;4.760;2023-02-22T16:53:19;62.90;;;46.05;;
27383;SDS011;14851;51.166;4.760;2023-02-22T16:55:50;59.88;;;45.03;;
27383;SDS011;14851;51.166;4.760;2023-02-22T16:58:26;57.72;;;43.88;;
27383;SDS011;14851;51.166;4.760;2023-02-22T17:00:55;61.65;;;45.78;;
27383;SDS011;14851;51.166;4.760;2023-02-22T17:03:21;58.20;;;44.72;;
27383;SDS011;14851;51.166;4.760;2023-02-22T17:05:48;58.95;;;45.42;;
27383;SDS011;14851;51.166;4.760;2023-02-22T17:08:16;61.95;;;45.22;;
27383;SDS011;14851;51.166;4.760;2023-02-22T17:10:42;59.38;;;43.35;;
27383;SDS011;14851;51.166;4.760;2023-02-22T17:13:10;61.42;;;44.15;;
27383;SDS011;14851;51.166;4.760;2023-02-22T17:15:36;57.88;;;43.70;;
27383;SDS011;14851;51.166;4.760;2023-02-22T17:18:05;63.78;;;45.42;;
27383;SDS011;14851;51.166;4.760;2023-02-22T17:20:38;61.70;;;47.17;;
27383;SDS011;14851;51.166;4.760;2023-02-22T17:23:05;60.83;;;47.00;;
27383;SDS011;14851;51.166;4.760;2023-02-22T17:25:36;66.57;;;47.53;;
27383;SDS011;14851;51.166;4.760;2023-02-22T17:28:04;69.60;;;47.67;;
27383;SDS011;14851;51.166;4.760;2023-02-22T17:30:33;64.00;;;47.03;;
27383;SDS011;14851;51.166;4.760;2023-02-22T17:33:03;69.22;;;48.03;;
27383;SDS011;14851;51.166;4.760;2023-02-22T17:35:32;69.45;;;48.47;;
27383;SDS011;14851;51.166;4.760;2023-02-22T17:38:00;67.50;;;48.92;;
27383;SDS011;14851;51.166;4.760;2023-02-22T17:40:31;68.28;;;49.78;;
27383;SDS011;14851;51.166;4.760;2023-02-22T17:42:58;72.55;;;49.53;;
27383;SDS011;14851;51.166;4.760;2023-02-22T17:45:24;69.97;;;47.70;;
27383;SDS011;14851;51.166;4.760;2023-02-22T17:47:50;73.18;;;50.95;;
27383;SDS011;14851;51.166;4.760;2023-02-22T17:50:17;71.97;;;50.72;;
27383;SDS011;14851;51.166;4.760;2023-02-22T17:52:44;69.43;;;48.15;;
27383;SDS011;14851;51.166;4.760;2023-02-22T17:55:11;65.53;;;45.00;;
27383;SDS011;14851;51.166;4.760;2023-02-22T17:57:38;69.78;;;48.17;;
27383;SDS011;14851;51.166;4.760;2023-02-22T18:00:12;67.20;;;46.25;;
27383;SDS011;14851;51.166;4.760;2023-02-22T18:02:41;71.80;;;48.88;;
27383;SDS011;14851;51.166;4.760;2023-02-22T18:05:11;79.55;;;52.00;;
27383;SDS011;14851;51.166;4.760;2023-02-22T18:07:40;75.45;;;53.22;;